sensor_id;sensor_type;location;lat;lon;timestamp;pressure;altitude;pressure_sealevel;temperature;humidity
3294;BME280;1659;51.470;6.770;2023-02-28T00:01:05;102896.19;;;0.01;68.97
3294;BME280;1659;51.470;6.770;2023-02-28T00:03:32;102895.22;;;-0.01;68.99
3294;BME280;1659;51.470;6.770;2023-02-28T00:06:00;102900.31;;;-0.03;68.96
3294;BME280;1659;51.470;6.770;2023-02-28T00:08:28;102896.72;;;-0.05;68.88
3294;BME280;1659;51.470;6.770;2023-02-28T00:10:55;102901.03;;;-0.05;69.32
3294;BME280;1659;51.470;6.770;2023-02-28T00:13:21;102906.25;;;-0.05;69.18
3294;BME280;1659;51.470;6.770;2023-02-28T00:15:58;102905.22;;;-0.07;69.26
3294;BME280;1659;51.470;6.770;2023-02-28T00:18:27;102910.38;;;-0.09;69.09
3294;BME280;1659;51.470;6.770;2023-02-28T00:20:53;102906.94;;;-0.08;69.16
3294;BME280;1659;51.470;6.770;2023-02-28T00:23:20;102901.75;;;-0.08;69.39
3294;BME280;1659;51.470;6.770;2023-02-28T00:25:46;102899.97;;;-0.09;69.36
3294;BME280;1659;51.470;6.770;2023-02-28T00:28:13;102907.66;;;-0.10;69.55
3294;BME280;1659;51.470;6.770;2023-02-28T00:30:39;102904.06;;;-0.12;69.63
3294;BME280;1659;51.470;6.770;2023-02-28T00:33:06;102917.16;;;-0.11;69.44
3294;BME280;1659;51.470;6.770;2023-02-28T00:35:34;102907.66;;;-0.10;69.37
3294;BME280;1659;51.470;6.770;2023-02-28T00:38:00;102901.66;;;-0.09;69.46
3294;BME280;1659;51.470;6.770;2023-02-28T00:40:27;102911.25;;;-0.08;69.44
3294;BME280;1659;51.470;6.770;2023-02-28T00:42:54;102907.78;;;-0.09;69.75
3294;BME280;1659;51.470;6.770;2023-02-28T00:45:21;102916.34;;;-0.10;69.77
3294;BME280;1659;51.470;6.770;2023-02-28T00:47:47;102917.16;;;-0.11;70.05
3294;BME280;1659;51.470;6.770;2023-02-28T00:50:15;102909.25;;;-0.12;69.77
3294;BME280;1659;51.470;6.770;2023-02-28T00:52:43;102911.78;;;-0.14;70.13
3294;BME280;1659;51.470;6.770;2023-02-28T00:55:10;102913.56;;;-0.13;70.07
3294;BME280;1659;51.470;6.770;2023-02-28T00:57:36;102914.44;;;-0.12;70.04
3294;BME280;1659;51.470;6.770;2023-02-28T01:00:04;102910.19;;;-0.12;70.15
3294;BME280;1659;51.470;6.770;2023-02-28T01:02:31;102916.25;;;-0.11;69.80
3294;BME280;1659;51.470;6.770;2023-02-28T01:04:58;102920.56;;;-0.12;70.25
3294;BME280;1659;51.470;6.770;2023-02-28T01:07:24;102923.16;;;-0.12;70.16
3294;BME280;1659;51.470;6.770;2023-02-28T01:09:52;102924.84;;;-0.12;69.77
3294;BME280;1659;51.470;6.770;2023-02-28T01:12:19;102919.66;;;-0.12;70.01
3294;BME280;1659;51.470;6.770;2023-02-28T01:14:45;102922.09;;;-0.15;70.19
3294;BME280;1659;51.470;6.770;2023-02-28T01:17:12;102922.88;;;-0.16;70.51
3294;BME280;1659;51.470;6.770;2023-02-28T01:19:38;102930.69;;;-0.16;70.21
3294;BME280;1659;51.470;6.770;2023-02-28T01:22:05;102931.50;;;-0.17;70.16
3294;BME280;1659;51.470;6.770;2023-02-28T01:24:33;102919.31;;;-0.18;70.23
3294;BME280;1659;51.470;6.770;2023-02-28T01:27:01;102932.19;;;-0.20;70.34
3294;BME280;1659;51.470;6.770;2023-02-28T01:29:27;102922.59;;;-0.21;69.91
3294;BME280;1659;51.470;6.770;2023-02-28T01:31:54;102927.88;;;-0.20;70.34
3294;BME280;1659;51.470;6.770;2023-02-28T01:34:20;102929.50;;;-0.22;70.49
3294;BME280;1659;51.470;6.770;2023-02-28T01:36:47;102925.19;;;-0.21;70.53
3294;BME280;1659;51.470;6.770;2023-02-28T01:39:13;102922.59;;;-0.21;70.53
3294;BME280;1659;51.470;6.770;2023-02-28T01:41:40;102922.53;;;-0.23;70.54
3294;BME280;1659;51.470;6.770;2023-02-28T01:47:08;102910.44;;;-0.22;70.49
3294;BME280;1659;51.470;6.770;2023-02-28T01:49:34;102912.94;;;-0.24;70.53
3294;BME280;1659;51.470;6.770;2023-02-28T01:52:01;102913.72;;;-0.25;70.74
3294;BME280;1659;51.470;6.770;2023-02-28T01:54:31;102903.34;;;-0.25;70.56
3294;BME280;1659;51.470;6.770;2023-02-28T01:57:03;102906.84;;;-0.24;70.51
3294;BME280;1659;51.470;6.770;2023-02-28T01:59:34;102899.75;;;-0.27;70.43
3294;BME280;1659;51.470;6.770;2023-02-28T02:02:01;102905.78;;;-0.28;70.85
3294;BME280;1659;51.470;6.770;2023-02-28T02:04:32;102899.66;;;-0.28;70.80
3294;BME280;1659;51.470;6.770;2023-02-28T02:07:01;102902.97;;;-0.31;70.99
3294;BME280;1659;51.470;6.770;2023-02-28T02:09:28;102895.19;;;-0.31;70.78
3294;BME280;1659;51.470;6.770;2023-02-28T02:11:55;102901.16;;;-0.32;70.83
3294;BME280;1659;51.470;6.770;2023-02-28T02:14:32;102895.00;;;-0.34;70.64
3294;BME280;1659;51.470;6.770;2023-02-28T02:17:14;102887.28;;;-0.32;70.88
3294;BME280;1659;51.470;6.770;2023-02-28T02:20:15;102886.41;;;-0.33;71.26
3294;BME280;1659;51.470;6.770;2023-02-28T02:23:07;102881.03;;;-0.36;71.26
3294;BME280;1659;51.470;6.770;2023-02-28T02:25:42;102883.53;;;-0.38;70.99
3294;BME280;1659;51.470;6.770;2023-02-28T02:28:41;102878.97;;;-0.42;70.90
3294;BME280;1659;51.470;6.770;2023-02-28T02:31:27;102883.75;;;-0.48;70.91
3294;BME280;1659;51.470;6.770;2023-02-28T02:34:24;102889.50;;;-0.53;71.25
3294;BME280;1659;51.470;6.770;2023-02-28T02:37:02;102886.50;;;-0.60;71.26
3294;BME280;1659;51.470;6.770;2023-02-28T02:39:36;102882.72;;;-0.65;71.48
3294;BME280;1659;51.470;6.770;2023-02-28T02:42:12;102880.56;;;-0.72;71.35
3294;BME280;1659;51.470;6.770;2023-02-28T02:44:44;102877.59;;;-0.78;71.62
3294;BME280;1659;51.470;6.770;2023-02-28T02:47:16;102884.22;;;-0.83;71.28
3294;BME280;1659;51.470;6.770;2023-02-28T02:49:47;102880.53;;;-0.87;71.52
3294;BME280;1659;51.470;6.770;2023-02-28T02:52:18;102881.94;;;-0.92;71.29
3294;BME280;1659;51.470;6.770;2023-02-28T02:54:48;102886.84;;;-0.97;71.56
3294;BME280;1659;51.470;6.770;2023-02-28T02:57:21;102885.66;;;-1.02;71.87
3294;BME280;1659;51.470;6.770;2023-02-28T02:59:50;102886.06;;;-1.09;71.61
3294;BME280;1659;51.470;6.770;2023-02-28T03:02:20;102890.16;;;-1.12;71.83
3294;BME280;1659;51.470;6.770;2023-02-28T03:04:51;102891.47;;;-1.19;72.07
3294;BME280;1659;51.470;6.770;2023-02-28T03:07:19;102892.19;;;-1.22;71.85
3294;BME280;1659;51.470;6.770;2023-02-28T03:09:50;102891.00;;;-1.27;72.09
3294;BME280;1659;51.470;6.770;2023-02-28T03:12:18;102897.59;;;-1.32;72.05
3294;BME280;1659;51.470;6.770;2023-02-28T03:14:53;102896.38;;;-1.37;72.29
3294;BME280;1659;51.470;6.770;2023-02-28T03:17:33;102891.81;;;-1.41;72.39
3294;BME280;1659;51.470;6.770;2023-02-28T03:20:16;102882.03;;;-1.45;72.16
3294;BME280;1659;51.470;6.770;2023-02-28T03:22:58;102893.09;;;-1.48;72.25
3294;BME280;1659;51.470;6.770;2023-02-28T03:25:32;102885.91;;;-1.52;72.10
3294;BME280;1659;51.470;6.770;2023-02-28T03:28:07;102885.72;;;-1.55;72.26
3294;BME280;1659;51.470;6.770;2023-02-28T03:30:41;102882.16;;;-1.57;72.33
3294;BME280;1659;51.470;6.770;2023-02-28T03:33:11;102888.81;;;-1.61;72.23
3294;BME280;1659;51.470;6.770;2023-02-28T03:35:43;102892.88;;;-1.64;72.44
3294;BME280;1659;51.470;6.770;2023-02-28T03:38:15;102891.78;;;-1.68;72.60
3294;BME280;1659;51.470;6.770;2023-02-28T03:40:48;102892.50;;;-1.71;72.63
3294;BME280;1659;51.470;6.770;2023-02-28T03:43:18;102894.09;;;-1.73;72.53
3294;BME280;1659;51.470;6.770;2023-02-28T03:45:48;102889.59;;;-1.75;72.61
3294;BME280;1659;51.470;6.770;2023-02-28T03:48:21;102897.38;;;-1.75;72.66
3294;BME280;1659;51.470;6.770;2023-02-28T03:50:53;102894.00;;;-1.74;72.66
3294;BME280;1659;51.470;6.770;2023-02-28T03:53:25;102898.47;;;-1.72;72.71
3294;BME280;1659;51.470;6.770;2023-02-28T03:55:58;102896.69;;;-1.73;72.67
3294;BME280;1659;51.470;6.770;2023-02-28T03:58:30;102889.81;;;-1.72;72.32
3294;BME280;1659;51.470;6.770;2023-02-28T04:01:01;102894.88;;;-1.74;72.74
3294;BME280;1659;51.470;6.770;2023-02-28T04:03:37;102887.13;;;-1.74;72.92
3294;BME280;1659;51.470;6.770;2023-02-28T04:06:07;102889.69;;;-1.74;72.79
3294;BME280;1659;51.470;6.770;2023-02-28T04:08:38;102894.78;;;-1.75;72.81
3294;BME280;1659;51.470;6.770;2023-02-28T04:11:12;102888.81;;;-1.74;72.91
3294;BME280;1659;51.470;6.770;2023-02-28T04:13:42;102891.50;;;-1.73;72.76
3294;BME280;1659;51.470;6.770;2023-02-28T04:16:09;102891.63;;;-1.71;72.94
3294;BME280;1659;51.470;6.770;2023-02-28T04:18:37;102889.81;;;-1.72;72.81
3294;BME280;1659;51.470;6.770;2023-02-28T04:21:05;102893.19;;;-1.73;73.16
3294;BME280;1659;51.470;6.770;2023-02-28T04:23:34;102893.91;;;-1.76;72.77
3294;BME280;1659;51.470;6.770;2023-02-28T04:26:01;102898.19;;;-1.76;72.99
3294;BME280;1659;51.470;6.770;2023-02-28T04:28:28;102893.91;;;-1.76;72.96
3294;BME280;1659;51.470;6.770;2023-02-28T04:30:55;102899.78;;;-1.78;72.99
3294;BME280;1659;51.470;6.770;2023-02-28T04:33:22;102895.38;;;-1.79;73.23
3294;BME280;1659;51.470;6.770;2023-02-28T04:35:58;102903.16;;;-1.79;72.81
3294;BME280;1659;51.470;6.770;2023-02-28T04:38:25;102896.16;;;-1.80;73.09
3294;BME280;1659;51.470;6.770;2023-02-28T04:40:52;102899.59;;;-1.81;73.11
3294;BME280;1659;51.470;6.770;2023-02-28T04:43:18;102898.66;;;-1.82;73.15
3294;BME280;1659;51.470;6.770;2023-02-28T04:45:45;102908.13;;;-1.82;73.07
3294;BME280;1659;51.470;6.770;2023-02-28T04:48:11;102902.06;;;-1.83;72.96
3294;BME280;1659;51.470;6.770;2023-02-28T04:50:38;102903.78;;;-1.83;73.39
3294;BME280;1659;51.470;6.770;2023-02-28T04:53:04;102914.13;;;-1.83;73.23
3294;BME280;1659;51.470;6.770;2023-02-28T04:55:32;102910.63;;;-1.84;73.15
3294;BME280;1659;51.470;6.770;2023-02-28T04:57:59;102910.53;;;-1.85;73.24
3294;BME280;1659;51.470;6.770;2023-02-28T05:00:26;102908.75;;;-1.86;73.12
3294;BME280;1659;51.470;6.770;2023-02-28T05:02:52;102907.75;;;-1.88;73.42
3294;BME280;1659;51.470;6.770;2023-02-28T05:05:19;102906.03;;;-1.88;73.17
3294;BME280;1659;51.470;6.770;2023-02-28T05:07:46;102905.94;;;-1.90;73.27
3294;BME280;1659;51.470;6.770;2023-02-28T05:10:12;102917.91;;;-1.92;73.31
3294;BME280;1659;51.470;6.770;2023-02-28T05:12:40;102910.91;;;-1.93;73.34
3294;BME280;1659;51.470;6.770;2023-02-28T05:15:09;102924.56;;;-1.95;73.29
3294;BME280;1659;51.470;6.770;2023-02-28T05:17:38;102921.88;;;-1.97;73.32
3294;BME280;1659;51.470;6.770;2023-02-28T05:20:06;102916.47;;;-2.00;73.40
3294;BME280;1659;51.470;6.770;2023-02-28T05:22:35;102924.16;;;-2.01;73.50
3294;BME280;1659;51.470;6.770;2023-02-28T05:25:02;102920.56;;;-2.03;73.36
3294;BME280;1659;51.470;6.770;2023-02-28T05:27:30;102923.75;;;-2.07;73.37
3294;BME280;1659;51.470;6.770;2023-02-28T05:29:57;102921.84;;;-2.10;73.36
3294;BME280;1659;51.470;6.770;2023-02-28T05:32:24;102928.59;;;-2.12;73.47
3294;BME280;1659;51.470;6.770;2023-02-28T05:34:51;102927.72;;;-2.13;73.57
3294;BME280;1659;51.470;6.770;2023-02-28T05:37:17;102927.59;;;-2.14;73.47
3294;BME280;1659;51.470;6.770;2023-02-28T05:39:44;102932.69;;;-2.16;73.39
3294;BME280;1659;51.470;6.770;2023-02-28T05:42:10;102934.28;;;-2.18;73.71
3294;BME280;1659;51.470;6.770;2023-02-28T05:44:37;102934.28;;;-2.18;73.31
3294;BME280;1659;51.470;6.770;2023-02-28T05:47:05;102933.38;;;-2.18;73.38
3294;BME280;1659;51.470;6.770;2023-02-28T05:49:31;102936.88;;;-2.18;73.46
3294;BME280;1659;51.470;6.770;2023-02-28T05:51:58;102942.81;;;-2.19;73.50
3294;BME280;1659;51.470;6.770;2023-02-28T05:54:24;102939.25;;;-2.21;73.48
3294;BME280;1659;51.470;6.770;2023-02-28T05:56:53;102929.69;;;-2.22;73.65
3294;BME280;1659;51.470;6.770;2023-02-28T05:59:20;102948.72;;;-2.21;73.34
3294;BME280;1659;51.470;6.770;2023-02-28T06:01:47;102940.06;;;-2.22;73.70
3294;BME280;1659;51.470;6.770;2023-02-28T06:04:17;102942.44;;;-2.25;73.52
3294;BME280;1659;51.470;6.770;2023-02-28T06:06:45;102942.31;;;-2.26;73.53
3294;BME280;1659;51.470;6.770;2023-02-28T06:09:12;102941.31;;;-2.29;73.56
3294;BME280;1659;51.470;6.770;2023-02-28T06:11:41;102947.38;;;-2.28;73.40
3294;BME280;1659;51.470;6.770;2023-02-28T06:14:13;102944.91;;;-2.26;73.64
3294;BME280;1659;51.470;6.770;2023-02-28T06:16:40;102950.97;;;-2.26;73.43
3294;BME280;1659;51.470;6.770;2023-02-28T06:19:08;102952.69;;;-2.26;73.46
3294;BME280;1659;51.470;6.770;2023-02-28T06:21:36;102957.84;;;-2.26;73.41
3294;BME280;1659;51.470;6.770;2023-02-28T06:24:03;102953.47;;;-2.28;73.54
3294;BME280;1659;51.470;6.770;2023-02-28T06:26:30;102955.94;;;-2.29;73.42
3294;BME280;1659;51.470;6.770;2023-02-28T06:28:56;102966.41;;;-2.28;73.49
3294;BME280;1659;51.470;6.770;2023-02-28T06:31:23;102961.22;;;-2.28;73.78
3294;BME280;1659;51.470;6.770;2023-02-28T06:33:51;102967.31;;;-2.27;73.54
3294;BME280;1659;51.470;6.770;2023-02-28T06:36:18;102974.41;;;-2.24;73.72
3294;BME280;1659;51.470;6.770;2023-02-28T06:38:46;102975.50;;;-2.21;73.33
3294;BME280;1659;51.470;6.770;2023-02-28T06:41:16;102971.31;;;-2.19;73.59
3294;BME280;1659;51.470;6.770;2023-02-28T06:43:43;102972.44;;;-2.15;73.46
3294;BME280;1659;51.470;6.770;2023-02-28T06:46:12;102976.13;;;-2.12;73.40
3294;BME280;1659;51.470;6.770;2023-02-28T06:48:39;102971.28;;;-2.07;73.36
3294;BME280;1659;51.470;6.770;2023-02-28T06:51:08;102976.78;;;-2.02;73.50
3294;BME280;1659;51.470;6.770;2023-02-28T06:53:35;102978.78;;;-1.98;73.21
3294;BME280;1659;51.470;6.770;2023-02-28T06:56:05;102978.41;;;-1.91;73.53
3294;BME280;1659;51.470;6.770;2023-02-28T06:58:33;102973.16;;;-1.79;73.41
3294;BME280;1659;51.470;6.770;2023-02-28T07:00:59;102980.16;;;-1.65;73.26
3294;BME280;1659;51.470;6.770;2023-02-28T07:03:26;102981.06;;;-1.51;73.24
3294;BME280;1659;51.470;6.770;2023-02-28T07:05:53;102981.88;;;-1.39;73.02
3294;BME280;1659;51.470;6.770;2023-02-28T07:08:21;102981.69;;;-1.28;73.08
3294;BME280;1659;51.470;6.770;2023-02-28T07:10:51;102980.78;;;-1.16;72.85
3294;BME280;1659;51.470;6.770;2023-02-28T07:13:20;102978.19;;;-1.02;72.84
3294;BME280;1659;51.470;6.770;2023-02-28T07:15:53;102978.06;;;-0.90;72.64
3294;BME280;1659;51.470;6.770;2023-02-28T07:18:20;102990.75;;;-0.82;72.71
3294;BME280;1659;51.470;6.770;2023-02-28T07:20:48;102983.44;;;-0.74;72.75
3294;BME280;1659;51.470;6.770;2023-02-28T07:23:15;102987.53;;;-0.64;72.79
3294;BME280;1659;51.470;6.770;2023-02-28T07:25:41;102993.19;;;-0.57;72.72
3294;BME280;1659;51.470;6.770;2023-02-28T07:28:09;102989.56;;;-0.45;72.82
3294;BME280;1659;51.470;6.770;2023-02-28T07:30:36;102987.91;;;-0.30;72.23
3294;BME280;1659;51.470;6.770;2023-02-28T07:33:03;102988.25;;;-0.10;72.48
3294;BME280;1659;51.470;6.770;2023-02-28T07:35:30;102998.22;;;0.12;72.03
3294;BME280;1659;51.470;6.770;2023-02-28T07:37:57;102987.22;;;0.46;71.25
3294;BME280;1659;51.470;6.770;2023-02-28T07:40:24;102985.31;;;0.88;70.36
3294;BME280;1659;51.470;6.770;2023-02-28T07:42:51;102982.16;;;1.25;70.08
3294;BME280;1659;51.470;6.770;2023-02-28T07:45:18;102987.31;;;1.73;68.64
3294;BME280;1659;51.470;6.770;2023-02-28T07:47:46;102986.66;;;1.93;68.40
3294;BME280;1659;51.470;6.770;2023-02-28T07:50:14;102978.97;;;2.13;68.38
3294;BME280;1659;51.470;6.770;2023-02-28T07:52:41;102989.94;;;2.40;67.95
3294;BME280;1659;51.470;6.770;2023-02-28T07:55:09;102982.72;;;2.52;68.35
3294;BME280;1659;51.470;6.770;2023-02-28T07:57:35;102984.19;;;2.81;67.73
3294;BME280;1659;51.470;6.770;2023-02-28T08:00:03;102990.13;;;3.15;67.67
3294;BME280;1659;51.470;6.770;2023-02-28T08:02:30;102981.56;;;3.56;67.05
3294;BME280;1659;51.470;6.770;2023-02-28T08:04:59;102978.22;;;3.98;66.53
3294;BME280;1659;51.470;6.770;2023-02-28T08:07:59;102980.00;;;4.82;65.28
3294;BME280;1659;51.470;6.770;2023-02-28T08:10:26;102982.50;;;5.69;63.37
3294;BME280;1659;51.470;6.770;2023-02-28T08:12:52;102978.00;;;6.39;62.78
3294;BME280;1659;51.470;6.770;2023-02-28T08:15:19;102981.09;;;7.07;62.25
3294;BME280;1659;51.470;6.770;2023-02-28T08:17:49;102979.13;;;7.57;60.81
3294;BME280;1659;51.470;6.770;2023-02-28T08:20:17;102968.25;;;8.07;60.16
3294;BME280;1659;51.470;6.770;2023-02-28T08:22:43;102975.50;;;8.49;59.32
3294;BME280;1659;51.470;6.770;2023-02-28T08:25:10;102971.19;;;8.88;59.27
3294;BME280;1659;51.470;6.770;2023-02-28T08:27:37;102971.22;;;9.29;58.58
3294;BME280;1659;51.470;6.770;2023-02-28T08:30:04;102967.63;;;9.67;57.96
3294;BME280;1659;51.470;6.770;2023-02-28T08:32:32;102978.03;;;10.05;57.26
3294;BME280;1659;51.470;6.770;2023-02-28T08:35:02;102968.25;;;10.46;56.80
3294;BME280;1659;51.470;6.770;2023-02-28T08:37:30;102974.84;;;10.71;56.30
3294;BME280;1659;51.470;6.770;2023-02-28T08:39:57;102978.66;;;10.89;55.93
3294;BME280;1659;51.470;6.770;2023-02-28T08:42:23;102979.63;;;10.94;55.60
3294;BME280;1659;51.470;6.770;2023-02-28T08:44:50;102968.38;;;11.10;54.84
3294;BME280;1659;51.470;6.770;2023-02-28T08:47:16;102968.84;;;11.43;54.30
3294;BME280;1659;51.470;6.770;2023-02-28T08:49:43;102972.50;;;11.54;53.34
3294;BME280;1659;51.470;6.770;2023-02-28T08:52:10;102973.34;;;11.51;53.00
3294;BME280;1659;51.470;6.770;2023-02-28T08:54:37;102967.31;;;11.65;52.45
3294;BME280;1659;51.470;6.770;2023-02-28T08:57:04;102969.13;;;11.67;52.09
3294;BME280;1659;51.470;6.770;2023-02-28T08:59:31;102962.22;;;11.80;51.40
3294;BME280;1659;51.470;6.770;2023-02-28T09:02:00;102958.84;;;11.92;51.04
3294;BME280;1659;51.470;6.770;2023-02-28T09:04:27;102960.75;;;12.05;50.13
3294;BME280;1659;51.470;6.770;2023-02-28T09:06:55;102959.78;;;12.00;49.51
3294;BME280;1659;51.470;6.770;2023-02-28T09:09:22;102951.06;;;12.07;49.31
3294;BME280;1659;51.470;6.770;2023-02-28T09:11:50;102954.72;;;12.20;48.77
3294;BME280;1659;51.470;6.770;2023-02-28T09:14:16;102954.84;;;12.34;48.38
3294;BME280;1659;51.470;6.770;2023-02-28T09:16:43;102953.88;;;12.26;47.58
3294;BME280;1659;51.470;6.770;2023-02-28T09:19:10;102953.91;;;12.27;47.87
3294;BME280;1659;51.470;6.770;2023-02-28T09:21:37;102950.38;;;12.28;46.96
3294;BME280;1659;51.470;6.770;2023-02-28T09:24:04;102946.72;;;12.17;46.34
3294;BME280;1659;51.470;6.770;2023-02-28T09:26:31;102946.69;;;12.14;45.84
3294;BME280;1659;51.470;6.770;2023-02-28T09:29:01;102941.31;;;12.05;45.30
3294;BME280;1659;51.470;6.770;2023-02-28T09:31:28;102941.28;;;12.02;45.51
3294;BME280;1659;51.470;6.770;2023-02-28T09:33:56;102943.06;;;12.04;45.48
3294;BME280;1659;51.470;6.770;2023-02-28T09:36:23;102948.56;;;12.21;44.85
3294;BME280;1659;51.470;6.770;2023-02-28T09:38:51;102949.44;;;12.26;44.66
3294;BME280;1659;51.470;6.770;2023-02-28T09:41:20;102949.34;;;12.11;43.47
3294;BME280;1659;51.470;6.770;2023-02-28T09:43:50;102949.16;;;11.94;44.00
3294;BME280;1659;51.470;6.770;2023-02-28T09:46:28;102940.97;;;11.77;43.57
3294;BME280;1659;51.470;6.770;2023-02-28T09:48:59;102942.97;;;11.97;43.37
3294;BME280;1659;51.470;6.770;2023-02-28T09:51:47;102946.81;;;12.23;42.81
3294;BME280;1659;51.470;6.770;2023-02-28T09:54:19;102953.03;;;12.32;43.04
3294;BME280;1659;51.470;6.770;2023-02-28T09:56:49;102941.69;;;12.45;42.30
3294;BME280;1659;51.470;6.770;2023-02-28T09:59:27;102946.22;;;12.60;41.76
3294;BME280;1659;51.470;6.770;2023-02-28T10:02:02;102951.50;;;12.57;41.87
3294;BME280;1659;51.470;6.770;2023-02-28T10:04:42;102947.19;;;12.71;41.18
3294;BME280;1659;51.470;6.770;2023-02-28T10:07:21;102947.19;;;12.71;41.14
3294;BME280;1659;51.470;6.770;2023-02-28T10:09:54;102945.34;;;12.62;40.61
3294;BME280;1659;51.470;6.770;2023-02-28T10:12:23;102942.72;;;12.65;40.49
3294;BME280;1659;51.470;6.770;2023-02-28T10:14:52;102939.97;;;12.56;39.42
3294;BME280;1659;51.470;6.770;2023-02-28T10:17:25;102938.06;;;12.37;39.40
3294;BME280;1659;51.470;6.770;2023-02-28T10:19:59;102933.44;;;12.14;38.57
3294;BME280;1659;51.470;6.770;2023-02-28T10:22:38;102937.81;;;12.09;38.02
3294;BME280;1659;51.470;6.770;2023-02-28T10:25:17;102937.56;;;11.87;38.33
3294;BME280;1659;51.470;6.770;2023-02-28T10:27:44;102941.63;;;11.56;38.22
3294;BME280;1659;51.470;6.770;2023-02-28T10:30:12;102947.47;;;11.30;37.68
3294;BME280;1659;51.470;6.770;2023-02-28T10:32:47;102941.81;;;11.03;37.62
3294;BME280;1659;51.470;6.770;2023-02-28T10:35:17;102940.81;;;10.94;37.51
3294;BME280;1659;51.470;6.770;2023-02-28T10:37:46;102948.25;;;10.64;36.87
3294;BME280;1659;51.470;6.770;2023-02-28T10:40:31;102948.06;;;10.02;36.85
3294;BME280;1659;51.470;6.770;2023-02-28T10:43:00;102938.19;;;9.92;38.08
3294;BME280;1659;51.470;6.770;2023-02-28T10:45:29;102938.69;;;10.20;37.87
3294;BME280;1659;51.470;6.770;2023-02-28T10:48:00;102927.19;;;10.16;37.31
3294;BME280;1659;51.470;6.770;2023-02-28T10:50:32;102940.13;;;10.02;37.69
3294;BME280;1659;51.470;6.770;2023-02-28T10:53:14;102934.69;;;9.93;37.60
3294;BME280;1659;51.470;6.770;2023-02-28T10:55:42;102923.91;;;10.30;38.09
3294;BME280;1659;51.470;6.770;2023-02-28T10:58:21;102933.31;;;10.64;36.41
3294;BME280;1659;51.470;6.770;2023-02-28T11:00:49;102931.72;;;10.25;37.35
3294;BME280;1659;51.470;6.770;2023-02-28T11:03:29;102918.97;;;9.99;38.00
3294;BME280;1659;51.470;6.770;2023-02-28T11:05:57;102924.28;;;9.57;38.15
3294;BME280;1659;51.470;6.770;2023-02-28T11:08:23;102932.94;;;9.07;38.63
3294;BME280;1659;51.470;6.770;2023-02-28T11:10:54;102933.25;;;8.83;38.49
3294;BME280;1659;51.470;6.770;2023-02-28T11:13:35;102918.75;;;9.02;38.60
3294;BME280;1659;51.470;6.770;2023-02-28T11:16:05;102913.31;;;9.35;38.21
3294;BME280;1659;51.470;6.770;2023-02-28T11:18:40;102922.94;;;9.77;37.87
3294;BME280;1659;51.470;6.770;2023-02-28T11:21:08;102924.00;;;10.34;37.82
3294;BME280;1659;51.470;6.770;2023-02-28T11:23:49;102920.63;;;11.01;36.80
3294;BME280;1659;51.470;6.770;2023-02-28T11:26:38;102909.78;;;11.50;36.71
3294;BME280;1659;51.470;6.770;2023-02-28T11:29:19;102903.28;;;12.00;36.67
3294;BME280;1659;51.470;6.770;2023-02-28T11:32:18;102902.81;;;12.50;35.80
3294;BME280;1659;51.470;6.770;2023-02-28T11:34:59;102898.66;;;12.89;35.81
3294;BME280;1659;51.470;6.770;2023-02-28T11:37:27;102897.94;;;13.22;35.58
3294;BME280;1659;51.470;6.770;2023-02-28T11:39:54;102908.56;;;13.27;35.05
3294;BME280;1659;51.470;6.770;2023-02-28T11:42:40;102898.59;;;12.78;34.64
3294;BME280;1659;51.470;6.770;2023-02-28T11:45:36;102894.56;;;12.13;34.62
3294;BME280;1659;51.470;6.770;2023-02-28T11:48:16;102904.34;;;11.41;34.98
3294;BME280;1659;51.470;6.770;2023-02-28T11:50:54;102905.84;;;11.17;35.82
3294;BME280;1659;51.470;6.770;2023-02-28T11:53:36;102904.13;;;11.21;35.49
3294;BME280;1659;51.470;6.770;2023-02-28T11:56:10;102893.88;;;11.48;35.43
3294;BME280;1659;51.470;6.770;2023-02-28T11:58:45;102903.50;;;11.42;34.51
3294;BME280;1659;51.470;6.770;2023-02-28T12:01:31;102892.09;;;11.47;34.67
3294;BME280;1659;51.470;6.770;2023-02-28T12:04:13;102886.03;;;11.58;34.04
3294;BME280;1659;51.470;6.770;2023-02-28T12:06:46;102882.31;;;11.42;34.01
3294;BME280;1659;51.470;6.770;2023-02-28T12:09:28;102883.06;;;11.31;33.92
3294;BME280;1659;51.470;6.770;2023-02-28T12:12:04;102884.00;;;11.35;33.05
3294;BME280;1659;51.470;6.770;2023-02-28T12:14:59;102875.88;;;11.20;33.16
3294;BME280;1659;51.470;6.770;2023-02-28T12:17:39;102871.22;;;11.00;33.31
3294;BME280;1659;51.470;6.770;2023-02-28T12:20:17;102868.84;;;11.23;33.20
3294;BME280;1659;51.470;6.770;2023-02-28T12:22:52;102861.22;;;11.49;32.75
3294;BME280;1659;51.470;6.770;2023-02-28T12:25:41;102845.63;;;11.77;32.68
3294;BME280;1659;51.470;6.770;2023-02-28T12:28:14;102853.78;;;11.96;32.26
3294;BME280;1659;51.470;6.770;2023-02-28T12:30:49;102841.50;;;12.07;32.83
3294;BME280;1659;51.470;6.770;2023-02-28T12:33:21;102845.41;;;12.57;32.84
3294;BME280;1659;51.470;6.770;2023-02-28T12:35:53;102846.44;;;12.85;32.71
3294;BME280;1659;51.470;6.770;2023-02-28T12:38:26;102831.56;;;13.27;31.98
3294;BME280;1659;51.470;6.770;2023-02-28T12:40:56;102841.44;;;13.56;32.35
3294;BME280;1659;51.470;6.770;2023-02-28T12:43:31;102839.63;;;13.43;31.80
3294;BME280;1659;51.470;6.770;2023-02-28T12:46:06;102826.28;;;13.30;31.87
3294;BME280;1659;51.470;6.770;2023-02-28T12:48:40;102829.63;;;12.81;31.70
3294;BME280;1659;51.470;6.770;2023-02-28T12:51:09;102826.91;;;12.74;31.84
3294;BME280;1659;51.470;6.770;2023-02-28T12:53:49;102833.97;;;12.72;31.26
3294;BME280;1659;51.470;6.770;2023-02-28T12:56:23;102820.75;;;12.82;32.17
3294;BME280;1659;51.470;6.770;2023-02-28T12:58:58;102803.09;;;12.89;31.82
3294;BME280;1659;51.470;6.770;2023-02-28T13:01:52;102812.97;;;13.27;32.11
3294;BME280;1659;51.470;6.770;2023-02-28T13:04:34;102812.06;;;13.19;31.68
3294;BME280;1659;51.470;6.770;2023-02-28T13:07:27;102804.09;;;13.10;31.72
3294;BME280;1659;51.470;6.770;2023-02-28T13:09:59;102802.44;;;13.49;31.78
3294;BME280;1659;51.470;6.770;2023-02-28T13:12:27;102806.88;;;14.10;31.64
3294;BME280;1659;51.470;6.770;2023-02-28T13:15:07;102796.22;;;14.47;31.41
3294;BME280;1659;51.470;6.770;2023-02-28T13:17:38;102774.88;;;14.73;31.07
3294;BME280;1659;51.470;6.770;2023-02-28T13:20:16;102784.56;;;14.89;30.91
3294;BME280;1659;51.470;6.770;2023-02-28T13:22:44;102789.94;;;14.71;30.55
3294;BME280;1659;51.470;6.770;2023-02-28T13:31:19;102775.81;;;14.47;30.83
3294;BME280;1659;51.470;6.770;2023-02-28T13:34:12;102790.00;;;14.46;30.96
3294;BME280;1659;51.470;6.770;2023-02-28T13:36:39;102783.69;;;14.81;31.38
3294;BME280;1659;51.470;6.770;2023-02-28T13:42:32;102766.56;;;15.32;31.06
3294;BME280;1659;51.470;6.770;2023-02-28T13:45:26;102768.19;;;15.54;31.00